sensor_id;sensor_type;location;lat;lon;timestamp;P1;durP1;ratioP1;P2;durP2;ratioP2
6463;SDS011;3265;42.694;23.282;2023-02-26T00:01:13;18.30;;;6.03;;
6463;SDS011;3265;42.694;23.282;2023-02-26T00:03:41;22.17;;;5.97;;
6463;SDS011;3265;42.694;23.282;2023-02-26T00:06:08;14.20;;;5.73;;
6463;SDS011;3265;42.694;23.282;2023-02-26T00:08:35;19.10;;;5.63;;
6463;SDS011;3265;42.694;23.282;2023-02-26T00:11:04;18.07;;;5.33;;
6463;SDS011;3265;42.694;23.282;2023-02-26T00:13:32;17.73;;;5.67;;
6463;SDS011;3265;42.694;23.282;2023-02-26T00:15:59;21.63;;;5.93;;
6463;SDS011;3265;42.694;23.282;2023-02-26T00:18:28;18.50;;;6.17;;
6463;SDS011;3265;42.694;23.282;2023-02-26T00:20:56;22.20;;;5.63;;
6463;SDS011;3265;42.694;23.282;2023-02-26T00:23:23;15.37;;;5.60;;
6463;SDS011;3265;42.694;23.282;2023-02-26T00:25:50;20.27;;;5.73;;
6463;SDS011;3265;42.694;23.282;2023-02-26T00:28:17;16.13;;;5.70;;
6463;SDS011;3265;42.694;23.282;2023-02-26T00:30:45;16.27;;;4.97;;
6463;SDS011;3265;42.694;23.282;2023-02-26T00:33:13;16.83;;;5.17;;
6463;SDS011;3265;42.694;23.282;2023-02-26T00:35:42;14.53;;;5.80;;
6463;SDS011;3265;42.694;23.282;2023-02-26T00:38:09;15.63;;;5.87;;
6463;SDS011;3265;42.694;23.282;2023-02-26T00:40:39;17.97;;;5.67;;
6463;SDS011;3265;42.694;23.282;2023-02-26T00:43:12;19.20;;;5.53;;
6463;SDS011;3265;42.694;23.282;2023-02-26T00:45:42;19.87;;;5.90;;
6463;SDS011;3265;42.694;23.282;2023-02-26T00:48:15;14.97;;;5.57;;
6463;SDS011;3265;42.694;23.282;2023-02-26T00:50:53;16.70;;;5.43;;
6463;SDS011;3265;42.694;23.282;2023-02-26T00:53:26;21.13;;;5.17;;
6463;SDS011;3265;42.694;23.282;2023-02-26T00:55:56;15.90;;;5.37;;
6463;SDS011;3265;42.694;23.282;2023-02-26T00:58:23;21.87;;;5.80;;
6463;SDS011;3265;42.694;23.282;2023-02-26T01:00:50;13.87;;;5.20;;
6463;SDS011;3265;42.694;23.282;2023-02-26T01:03:17;16.47;;;5.43;;
6463;SDS011;3265;42.694;23.282;2023-02-26T01:05:44;18.83;;;5.23;;
6463;SDS011;3265;42.694;23.282;2023-02-26T01:08:14;19.30;;;5.70;;
6463;SDS011;3265;42.694;23.282;2023-02-26T01:10:47;16.33;;;5.43;;
6463;SDS011;3265;42.694;23.282;2023-02-26T01:13:14;20.10;;;5.70;;
6463;SDS011;3265;42.694;23.282;2023-02-26T01:15:43;18.23;;;5.40;;
6463;SDS011;3265;42.694;23.282;2023-02-26T01:18:15;21.57;;;5.10;;
6463;SDS011;3265;42.694;23.282;2023-02-26T01:20:46;17.30;;;5.30;;
6463;SDS011;3265;42.694;23.282;2023-02-26T01:23:18;18.80;;;5.60;;
6463;SDS011;3265;42.694;23.282;2023-02-26T01:25:51;21.60;;;6.17;;
6463;SDS011;3265;42.694;23.282;2023-02-26T01:28:23;16.77;;;4.80;;
6463;SDS011;3265;42.694;23.282;2023-02-26T01:30:52;21.27;;;4.80;;
6463;SDS011;3265;42.694;23.282;2023-02-26T01:33:33;15.90;;;5.00;;
6463;SDS011;3265;42.694;23.282;2023-02-26T01:36:06;15.90;;;4.97;;
6463;SDS011;3265;42.694;23.282;2023-02-26T01:38:38;18.00;;;4.97;;
6463;SDS011;3265;42.694;23.282;2023-02-26T01:41:12;15.80;;;4.77;;
6463;SDS011;3265;42.694;23.282;2023-02-26T01:43:50;23.80;;;5.40;;
6463;SDS011;3265;42.694;23.282;2023-02-26T01:46:27;13.70;;;4.73;;
6463;SDS011;3265;42.694;23.282;2023-02-26T01:48:59;22.60;;;5.37;;
6463;SDS011;3265;42.694;23.282;2023-02-26T01:51:40;11.40;;;4.33;;
6463;SDS011;3265;42.694;23.282;2023-02-26T01:54:11;17.10;;;5.00;;
6463;SDS011;3265;42.694;23.282;2023-02-26T01:56:39;16.80;;;4.67;;
6463;SDS011;3265;42.694;23.282;2023-02-26T01:59:07;20.67;;;5.37;;
6463;SDS011;3265;42.694;23.282;2023-02-26T02:01:37;13.23;;;4.17;;
6463;SDS011;3265;42.694;23.282;2023-02-26T02:04:06;13.63;;;4.77;;
6463;SDS011;3265;42.694;23.282;2023-02-26T02:06:36;17.90;;;5.40;;
6463;SDS011;3265;42.694;23.282;2023-02-26T02:09:04;15.80;;;4.80;;
6463;SDS011;3265;42.694;23.282;2023-02-26T02:11:34;22.07;;;5.30;;
6463;SDS011;3265;42.694;23.282;2023-02-26T02:14:12;17.27;;;4.60;;
6463;SDS011;3265;42.694;23.282;2023-02-26T02:16:47;15.00;;;4.43;;
6463;SDS011;3265;42.694;23.282;2023-02-26T02:19:32;15.70;;;4.80;;
6463;SDS011;3265;42.694;23.282;2023-02-26T02:22:25;19.20;;;4.87;;
6463;SDS011;3265;42.694;23.282;2023-02-26T02:25:13;21.10;;;4.73;;
6463;SDS011;3265;42.694;23.282;2023-02-26T02:28:07;17.43;;;4.43;;
6463;SDS011;3265;42.694;23.282;2023-02-26T02:30:58;21.73;;;4.90;;
6463;SDS011;3265;42.694;23.282;2023-02-26T02:33:32;17.20;;;4.97;;
6463;SDS011;3265;42.694;23.282;2023-02-26T02:36:04;18.33;;;4.53;;
6463;SDS011;3265;42.694;23.282;2023-02-26T02:38:36;21.77;;;5.23;;
6463;SDS011;3265;42.694;23.282;2023-02-26T02:41:10;15.10;;;4.53;;
6463;SDS011;3265;42.694;23.282;2023-02-26T02:43:40;23.03;;;4.93;;
6463;SDS011;3265;42.694;23.282;2023-02-26T02:46:12;17.87;;;4.53;;
6463;SDS011;3265;42.694;23.282;2023-02-26T02:48:43;21.27;;;4.10;;
6463;SDS011;3265;42.694;23.282;2023-02-26T02:51:16;16.80;;;4.87;;
6463;SDS011;3265;42.694;23.282;2023-02-26T02:53:49;15.70;;;4.83;;
6463;SDS011;3265;42.694;23.282;2023-02-26T02:56:18;12.97;;;4.70;;
6463;SDS011;3265;42.694;23.282;2023-02-26T02:58:50;17.90;;;5.23;;
6463;SDS011;3265;42.694;23.282;2023-02-26T03:01:22;18.30;;;4.50;;
6463;SDS011;3265;42.694;23.282;2023-02-26T03:03:54;16.20;;;4.67;;
6463;SDS011;3265;42.694;23.282;2023-02-26T03:06:26;16.80;;;4.20;;
6463;SDS011;3265;42.694;23.282;2023-02-26T03:08:53;15.13;;;4.73;;
6463;SDS011;3265;42.694;23.282;2023-02-26T03:11:20;13.90;;;4.43;;
6463;SDS011;3265;42.694;23.282;2023-02-26T03:13:47;19.97;;;4.97;;
6463;SDS011;3265;42.694;23.282;2023-02-26T03:16:20;15.43;;;4.90;;
6463;SDS011;3265;42.694;23.282;2023-02-26T03:18:57;10.63;;;4.60;;
6463;SDS011;3265;42.694;23.282;2023-02-26T03:21:32;15.23;;;4.60;;
6463;SDS011;3265;42.694;23.282;2023-02-26T03:24:05;15.10;;;4.70;;
6463;SDS011;3265;42.694;23.282;2023-02-26T03:26:41;19.57;;;4.90;;
6463;SDS011;3265;42.694;23.282;2023-02-26T03:29:14;14.60;;;3.93;;
6463;SDS011;3265;42.694;23.282;2023-02-26T03:31:49;17.57;;;4.50;;
6463;SDS011;3265;42.694;23.282;2023-02-26T03:34:21;17.27;;;4.50;;
6463;SDS011;3265;42.694;23.282;2023-02-26T03:36:53;17.77;;;4.50;;
6463;SDS011;3265;42.694;23.282;2023-02-26T03:39:25;20.27;;;4.40;;
6463;SDS011;3265;42.694;23.282;2023-02-26T03:42:01;10.00;;;4.50;;
6463;SDS011;3265;42.694;23.282;2023-02-26T03:44:34;22.80;;;5.30;;
6463;SDS011;3265;42.694;23.282;2023-02-26T03:47:07;18.10;;;4.43;;
6463;SDS011;3265;42.694;23.282;2023-02-26T03:49:39;23.70;;;4.97;;
6463;SDS011;3265;42.694;23.282;2023-02-26T03:52:10;18.70;;;5.20;;
6463;SDS011;3265;42.694;23.282;2023-02-26T03:54:38;14.97;;;5.00;;
6463;SDS011;3265;42.694;23.282;2023-02-26T03:57:08;12.03;;;5.10;;
6463;SDS011;3265;42.694;23.282;2023-02-26T03:59:35;16.50;;;5.33;;
6463;SDS011;3265;42.694;23.282;2023-02-26T04:02:03;17.37;;;4.97;;
6463;SDS011;3265;42.694;23.282;2023-02-26T04:04:37;16.90;;;5.20;;
6463;SDS011;3265;42.694;23.282;2023-02-26T04:07:09;19.43;;;5.57;;
6463;SDS011;3265;42.694;23.282;2023-02-26T04:09:39;16.00;;;4.97;;
6463;SDS011;3265;42.694;23.282;2023-02-26T04:12:06;17.83;;;5.23;;
6463;SDS011;3265;42.694;23.282;2023-02-26T04:14:33;21.30;;;5.20;;
6463;SDS011;3265;42.694;23.282;2023-02-26T04:17:00;16.97;;;4.67;;
6463;SDS011;3265;42.694;23.282;2023-02-26T04:19:27;16.97;;;4.83;;
6463;SDS011;3265;42.694;23.282;2023-02-26T04:21:55;19.10;;;4.80;;
6463;SDS011;3265;42.694;23.282;2023-02-26T04:24:22;19.47;;;5.57;;
6463;SDS011;3265;42.694;23.282;2023-02-26T04:26:49;15.93;;;4.80;;
6463;SDS011;3265;42.694;23.282;2023-02-26T04:29:16;17.53;;;4.77;;
6463;SDS011;3265;42.694;23.282;2023-02-26T04:31:42;19.90;;;4.53;;
6463;SDS011;3265;42.694;23.282;2023-02-26T04:34:09;20.43;;;5.00;;
6463;SDS011;3265;42.694;23.282;2023-02-26T04:36:36;20.10;;;4.90;;
6463;SDS011;3265;42.694;23.282;2023-02-26T04:39:04;16.37;;;4.40;;
6463;SDS011;3265;42.694;23.282;2023-02-26T04:41:31;19.77;;;4.87;;
6463;SDS011;3265;42.694;23.282;2023-02-26T04:43:58;21.33;;;5.03;;
6463;SDS011;3265;42.694;23.282;2023-02-26T04:46:25;29.97;;;5.17;;
6463;SDS011;3265;42.694;23.282;2023-02-26T04:48:51;29.07;;;5.07;;
6463;SDS011;3265;42.694;23.282;2023-02-26T04:51:18;15.43;;;4.87;;
6463;SDS011;3265;42.694;23.282;2023-02-26T04:53:45;38.07;;;4.90;;
6463;SDS011;3265;42.694;23.282;2023-02-26T04:56:13;23.23;;;4.43;;
6463;SDS011;3265;42.694;23.282;2023-02-26T04:58:40;19.33;;;4.90;;
6463;SDS011;3265;42.694;23.282;2023-02-26T05:01:07;30.97;;;5.37;;
6463;SDS011;3265;42.694;23.282;2023-02-26T05:03:34;19.27;;;4.43;;
6463;SDS011;3265;42.694;23.282;2023-02-26T05:06:01;22.40;;;4.80;;
6463;SDS011;3265;42.694;23.282;2023-02-26T05:08:28;25.73;;;5.77;;
6463;SDS011;3265;42.694;23.282;2023-02-26T05:10:54;24.17;;;4.70;;
6463;SDS011;3265;42.694;23.282;2023-02-26T05:13:23;22.23;;;4.60;;
6463;SDS011;3265;42.694;23.282;2023-02-26T05:15:51;20.13;;;4.97;;
6463;SDS011;3265;42.694;23.282;2023-02-26T05:18:18;17.30;;;4.57;;
6463;SDS011;3265;42.694;23.282;2023-02-26T05:20:45;15.73;;;4.20;;
6463;SDS011;3265;42.694;23.282;2023-02-26T05:23:18;16.97;;;5.00;;
6463;SDS011;3265;42.694;23.282;2023-02-26T05:25:45;19.70;;;5.17;;
6463;SDS011;3265;42.694;23.282;2023-02-26T05:28:12;21.50;;;5.03;;
6463;SDS011;3265;42.694;23.282;2023-02-26T05:30:40;21.57;;;4.43;;
6463;SDS011;3265;42.694;23.282;2023-02-26T05:33:07;22.97;;;4.83;;
6463;SDS011;3265;42.694;23.282;2023-02-26T05:35:34;24.47;;;6.07;;
6463;SDS011;3265;42.694;23.282;2023-02-26T05:38:01;21.20;;;5.00;;
6463;SDS011;3265;42.694;23.282;2023-02-26T05:40:28;23.47;;;4.40;;
6463;SDS011;3265;42.694;23.282;2023-02-26T05:42:54;19.97;;;5.03;;
6463;SDS011;3265;42.694;23.282;2023-02-26T05:45:21;18.73;;;4.40;;
6463;SDS011;3265;42.694;23.282;2023-02-26T05:47:50;17.93;;;4.20;;
6463;SDS011;3265;42.694;23.282;2023-02-26T05:50:17;20.27;;;4.97;;
6463;SDS011;3265;42.694;23.282;2023-02-26T05:52:43;20.93;;;4.37;;
6463;SDS011;3265;42.694;23.282;2023-02-26T05:55:10;20.27;;;3.83;;
6463;SDS011;3265;42.694;23.282;2023-02-26T05:57:37;27.63;;;4.97;;
6463;SDS011;3265;42.694;23.282;2023-02-26T06:00:06;22.67;;;4.43;;
6463;SDS011;3265;42.694;23.282;2023-02-26T06:09:43;19.90;;;4.87;;
6463;SDS011;3265;42.694;23.282;2023-02-26T06:15:16;39.93;;;6.20;;
6463;SDS011;3265;42.694;23.282;2023-02-26T06:23:07;21.27;;;4.43;;
6463;SDS011;3265;42.694;23.282;2023-02-26T06:26:22;20.50;;;4.93;;
6463;SDS011;3265;42.694;23.282;2023-02-26T06:29:36;24.23;;;4.57;;
6463;SDS011;3265;42.694;23.282;2023-02-26T06:36:21;17.93;;;4.00;;
6463;SDS011;3265;42.694;23.282;2023-02-26T06:42:55;50.90;;;6.20;;
6463;SDS011;3265;42.694;23.282;2023-02-26T06:46:07;33.20;;;4.27;;
6463;SDS011;3265;42.694;23.282;2023-02-26T07:16:19;29.60;;;4.70;;
6463;SDS011;3265;42.694;23.282;2023-02-26T07:19:29;22.57;;;4.30;;
6463;SDS011;3265;42.694;23.282;2023-02-26T07:22:57;26.60;;;5.13;;
6463;SDS011;3265;42.694;23.282;2023-02-26T07:26:13;25.43;;;4.80;;
6463;SDS011;3265;42.694;23.282;2023-02-26T07:28:51;26.90;;;5.37;;
6463;SDS011;3265;42.694;23.282;2023-02-26T07:35:28;18.30;;;3.67;;
6463;SDS011;3265;42.694;23.282;2023-02-26T07:38:48;22.33;;;4.43;;
6463;SDS011;3265;42.694;23.282;2023-02-26T07:44:54;26.17;;;4.60;;
6463;SDS011;3265;42.694;23.282;2023-02-26T07:47:31;19.93;;;4.30;;
6463;SDS011;3265;42.694;23.282;2023-02-26T07:50:08;19.37;;;4.43;;
6463;SDS011;3265;42.694;23.282;2023-02-26T07:52:40;22.57;;;4.53;;
6463;SDS011;3265;42.694;23.282;2023-02-26T07:58:20;26.17;;;4.93;;
6463;SDS011;3265;42.694;23.282;2023-02-26T08:00:51;27.33;;;4.50;;
6463;SDS011;3265;42.694;23.282;2023-02-26T08:03:54;28.83;;;4.70;;
6463;SDS011;3265;42.694;23.282;2023-02-26T08:06:30;21.23;;;4.37;;
6463;SDS011;3265;42.694;23.282;2023-02-26T08:09:21;22.63;;;5.00;;
6463;SDS011;3265;42.694;23.282;2023-02-26T08:12:06;17.97;;;4.13;;
6463;SDS011;3265;42.694;23.282;2023-02-26T08:14:43;21.40;;;4.40;;
6463;SDS011;3265;42.694;23.282;2023-02-26T08:17:31;19.70;;;4.47;;
6463;SDS011;3265;42.694;23.282;2023-02-26T08:20:09;23.17;;;4.77;;
6463;SDS011;3265;42.694;23.282;2023-02-26T08:23:21;25.80;;;4.63;;
6463;SDS011;3265;42.694;23.282;2023-02-26T08:25:44;18.60;;;4.37;;
6463;SDS011;3265;42.694;23.282;2023-02-26T08:28:49;17.07;;;4.30;;
6463;SDS011;3265;42.694;23.282;2023-02-26T08:34:32;19.33;;;4.30;;
6463;SDS011;3265;42.694;23.282;2023-02-26T08:37:12;22.57;;;4.57;;
6463;SDS011;3265;42.694;23.282;2023-02-26T08:40:10;22.57;;;4.53;;
6463;SDS011;3265;42.694;23.282;2023-02-26T08:42:54;18.23;;;4.30;;
6463;SDS011;3265;42.694;23.282;2023-02-26T08:45:46;19.37;;;4.37;;
6463;SDS011;3265;42.694;23.282;2023-02-26T08:48:22;21.67;;;4.40;;
6463;SDS011;3265;42.694;23.282;2023-02-26T08:50:51;15.83;;;4.40;;
6463;SDS011;3265;42.694;23.282;2023-02-26T08:53:36;24.50;;;4.67;;
6463;SDS011;3265;42.694;23.282;2023-02-26T08:56:21;28.90;;;5.27;;
6463;SDS011;3265;42.694;23.282;2023-02-26T08:59:00;22.33;;;4.97;;
6463;SDS011;3265;42.694;23.282;2023-02-26T09:01:29;20.97;;;5.27;;
6463;SDS011;3265;42.694;23.282;2023-02-26T09:04:15;21.27;;;4.43;;
6463;SDS011;3265;42.694;23.282;2023-02-26T09:08:16;18.97;;;5.13;;
6463;SDS011;3265;42.694;23.282;2023-02-26T09:12:51;20.37;;;5.17;;
6463;SDS011;3265;42.694;23.282;2023-02-26T09:15:28;22.17;;;4.17;;
6463;SDS011;3265;42.694;23.282;2023-02-26T09:18:33;22.30;;;4.20;;
6463;SDS011;3265;42.694;23.282;2023-02-26T09:21:34;20.77;;;4.57;;
6463;SDS011;3265;42.694;23.282;2023-02-26T09:24:19;27.93;;;5.13;;
6463;SDS011;3265;42.694;23.282;2023-02-26T09:30:17;32.55;;;5.15;;
6463;SDS011;3265;42.694;23.282;2023-02-26T09:39:03;44.03;;;12.10;;
6463;SDS011;3265;42.694;23.282;2023-02-26T09:41:40;33.67;;;10.25;;
6463;SDS011;3265;42.694;23.282;2023-02-26T09:44:26;31.17;;;10.10;;
6463;SDS011;3265;42.694;23.282;2023-02-26T09:47:11;29.35;;;8.15;;
6463;SDS011;3265;42.694;23.282;2023-02-26T09:53:13;32.55;;;8.00;;
6463;SDS011;3265;42.694;23.282;2023-02-26T09:56:03;21.42;;;7.55;;
6463;SDS011;3265;42.694;23.282;2023-02-26T09:58:53;31.58;;;7.15;;
6463;SDS011;3265;42.694;23.282;2023-02-26T10:01:48;31.55;;;6.57;;
6463;SDS011;3265;42.694;23.282;2023-02-26T10:07:33;26.17;;;5.53;;
6463;SDS011;3265;42.694;23.282;2023-02-26T10:13:50;28.15;;;6.00;;
6463;SDS011;3265;42.694;23.282;2023-02-26T10:16:29;16.70;;;5.32;;
6463;SDS011;3265;42.694;23.282;2023-02-26T10:19:26;21.20;;;4.85;;
6463;SDS011;3265;42.694;23.282;2023-02-26T10:22:13;19.92;;;5.30;;
6463;SDS011;3265;42.694;23.282;2023-02-26T10:25:38;16.45;;;4.72;;
6463;SDS011;3265;42.694;23.282;2023-02-26T10:37:57;20.02;;;5.45;;
6463;SDS011;3265;42.694;23.282;2023-02-26T10:41:08;22.58;;;4.85;;
6463;SDS011;3265;42.694;23.282;2023-02-26T10:43:56;22.17;;;5.05;;
6463;SDS011;3265;42.694;23.282;2023-02-26T10:47:27;24.83;;;5.03;;
6463;SDS011;3265;42.694;23.282;2023-02-26T10:49:52;32.83;;;5.95;;
6463;SDS011;3265;42.694;23.282;2023-02-26T10:58:32;19.90;;;5.65;;
6463;SDS011;3265;42.694;23.282;2023-02-26T11:01:19;24.45;;;5.47;;
6463;SDS011;3265;42.694;23.282;2023-02-26T11:07:40;24.13;;;6.00;;
6463;SDS011;3265;42.694;23.282;2023-02-26T11:13:59;18.60;;;5.55;;
6463;SDS011;3265;42.694;23.282;2023-02-26T11:17:08;20.15;;;5.53;;
6463;SDS011;3265;42.694;23.282;2023-02-26T11:19:55;21.27;;;5.95;;
6463;SDS011;3265;42.694;23.282;2023-02-26T11:23:19;24.10;;;5.55;;
6463;SDS011;3265;42.694;23.282;2023-02-26T11:29:23;25.97;;;5.77;;
6463;SDS011;3265;42.694;23.282;2023-02-26T11:35:06;21.50;;;4.90;;
6463;SDS011;3265;42.694;23.282;2023-02-26T11:38:04;21.90;;;5.07;;
6463;SDS011;3265;42.694;23.282;2023-02-26T11:47:58;22.23;;;4.77;;
6463;SDS011;3265;42.694;23.282;2023-02-26T11:54:24;24.30;;;4.73;;
6463;SDS011;3265;42.694;23.282;2023-02-26T11:57:52;24.23;;;4.73;;
6463;SDS011;3265;42.694;23.282;2023-02-26T12:04:58;21.83;;;5.10;;
6463;SDS011;3265;42.694;23.282;2023-02-26T12:11:25;21.40;;;4.73;;
6463;SDS011;3265;42.694;23.282;2023-02-26T12:14:38;20.80;;;4.60;;
6463;SDS011;3265;42.694;23.282;2023-02-26T12:17:35;22.57;;;5.13;;
6463;SDS011;3265;42.694;23.282;2023-02-26T12:20:17;27.07;;;5.43;;
6463;SDS011;3265;42.694;23.282;2023-02-26T12:23:13;27.37;;;5.93;;
6463;SDS011;3265;42.694;23.282;2023-02-26T12:26:15;19.70;;;5.07;;
6463;SDS011;3265;42.694;23.282;2023-02-26T12:39:30;20.37;;;4.83;;
6463;SDS011;3265;42.694;23.282;2023-02-26T12:42:31;21.37;;;5.37;;
6463;SDS011;3265;42.694;23.282;2023-02-26T12:45:44;22.73;;;4.87;;
6463;SDS011;3265;42.694;23.282;2023-02-26T12:48:42;14.60;;;5.20;;
6463;SDS011;3265;42.694;23.282;2023-02-26T12:51:38;24.13;;;5.10;;
6463;SDS011;3265;42.694;23.282;2023-02-26T13:14:37;33.72;;;7.60;;
6463;SDS011;3265;42.694;23.282;2023-02-26T13:21:35;19.73;;;5.07;;
6463;SDS011;3265;42.694;23.282;2023-02-26T13:24:50;23.40;;;5.73;;
6463;SDS011;3265;42.694;23.282;2023-02-26T13:27:41;22.37;;;5.27;;
6463;SDS011;3265;42.694;23.282;2023-02-26T13:33:41;27.95;;;7.32;;
6463;SDS011;3265;42.694;23.282;2023-02-26T13:36:10;17.73;;;5.35;;
6463;SDS011;3265;42.694;23.282;2023-02-26T13:42:16;22.00;;;6.88;;
6463;SDS011;3265;42.694;23.282;2023-02-26T13:45:17;25.00;;;5.28;;
6463;SDS011;3265;42.694;23.282;2023-02-26T13:48:35;23.15;;;5.18;;
6463;SDS011;3265;42.694;23.282;2023-02-26T13:51:29;25.05;;;5.68;;
6463;SDS011;3265;42.694;23.282;2023-02-26T13:54:06;27.58;;;5.95;;
6463;SDS011;3265;42.694;23.282;2023-02-26T13:57:05;28.05;;;6.32;;
6463;SDS011;3265;42.694;23.282;2023-02-26T14:02:46;17.10;;;5.18;;
6463;SDS011;3265;42.694;23.282;2023-02-26T14:08:53;22.92;;;4.57;;
6463;SDS011;3265;42.694;23.282;2023-02-26T14:18:34;24.67;;;6.15;;
6463;SDS011;3265;42.694;23.282;2023-02-26T14:21:39;26.38;;;6.53;;
6463;SDS011;3265;42.694;23.282;2023-02-26T14:24:20;21.08;;;5.20;;
6463;SDS011;3265;42.694;23.282;2023-02-26T14:27:40;30.95;;;5.38;;
6463;SDS011;3265;42.694;23.282;2023-02-26T14:31:05;34.90;;;6.65;;
6463;SDS011;3265;42.694;23.282;2023-02-26T14:36:56;28.80;;;5.95;;
6463;SDS011;3265;42.694;23.282;2023-02-26T14:39:59;19.25;;;5.55;;
6463;SDS011;3265;42.694;23.282;2023-02-26T14:42:54;22.10;;;5.78;;
6463;SDS011;3265;42.694;23.282;2023-02-26T14:52:12;19.98;;;6.20;;
6463;SDS011;3265;42.694;23.282;2023-02-26T15:02:32;20.60;;;6.17;;
6463;SDS011;3265;42.694;23.282;2023-02-26T15:06:01;26.77;;;6.67;;
6463;SDS011;3265;42.694;23.282;2023-02-26T15:37:16;21.57;;;5.80;;
6463;SDS011;3265;42.694;23.282;2023-02-26T15:43:54;26.57;;;6.00;;
6463;SDS011;3265;42.694;23.282;2023-02-26T15:46:19;23.97;;;6.07;;
6463;SDS011;3265;42.694;23.282;2023-02-26T15:49:06;26.07;;;6.33;;
6463;SDS011;3265;42.694;23.282;2023-02-26T15:51:57;21.57;;;6.83;;
6463;SDS011;3265;42.694;23.282;2023-02-26T15:57:58;23.87;;;6.60;;
6463;SDS011;3265;42.694;23.282;2023-02-26T16:00:41;33.47;;;9.63;;
6463;SDS011;3265;42.694;23.282;2023-02-26T16:03:17;34.33;;;11.07;;
6463;SDS011;3265;42.694;23.282;2023-02-26T16:06:23;25.87;;;9.50;;
6463;SDS011;3265;42.694;23.282;2023-02-26T16:13:48;34.53;;;11.90;;
6463;SDS011;3265;42.694;23.282;2023-02-26T16:22:18;31.97;;;14.63;;
6463;SDS011;3265;42.694;23.282;2023-02-26T16:25:04;45.00;;;19.40;;
6463;SDS011;3265;42.694;23.282;2023-02-26T16:27:56;41.63;;;18.20;;
6463;SDS011;3265;42.694;23.282;2023-02-26T16:31:16;39.07;;;17.67;;
6463;SDS011;3265;42.694;23.282;2023-02-26T16:33:56;51.67;;;18.17;;
6463;SDS011;3265;42.694;23.282;2023-02-26T16:36:59;42.33;;;19.87;;
6463;SDS011;3265;42.694;23.282;2023-02-26T16:40:15;37.57;;;16.43;;
6463;SDS011;3265;42.694;23.282;2023-02-26T16:43:29;33.87;;;13.10;;
6463;SDS011;3265;42.694;23.282;2023-02-26T16:46:38;43.33;;;13.07;;
6463;SDS011;3265;42.694;23.282;2023-02-26T16:49:16;35.83;;;10.93;;
6463;SDS011;3265;42.694;23.282;2023-02-26T16:52:21;36.10;;;11.43;;
6463;SDS011;3265;42.694;23.282;2023-02-26T16:55:00;28.70;;;10.07;;
6463;SDS011;3265;42.694;23.282;2023-02-26T17:05:01;32.43;;;9.00;;
6463;SDS011;3265;42.694;23.282;2023-02-26T17:08:04;35.20;;;9.20;;
6463;SDS011;3265;42.694;23.282;2023-02-26T17:10:52;35.87;;;12.13;;
6463;SDS011;3265;42.694;23.282;2023-02-26T17:13:32;36.33;;;12.53;;
6463;SDS011;3265;42.694;23.282;2023-02-26T17:16:18;38.00;;;11.77;;
6463;SDS011;3265;42.694;23.282;2023-02-26T17:19:02;27.47;;;11.00;;
6463;SDS011;3265;42.694;23.282;2023-02-26T17:25:24;47.07;;;17.90;;
6463;SDS011;3265;42.694;23.282;2023-02-26T17:35:06;63.20;;;21.77;;
6463;SDS011;3265;42.694;23.282;2023-02-26T17:37:35;153.57;;;54.27;;
6463;SDS011;3265;42.694;23.282;2023-02-26T17:40:04;92.90;;;35.47;;
6463;SDS011;3265;42.694;23.282;2023-02-26T17:42:47;298.93;;;121.37;;
6463;SDS011;3265;42.694;23.282;2023-02-26T17:45:24;48.47;;;14.90;;
6463;SDS011;3265;42.694;23.282;2023-02-26T17:48:07;37.83;;;13.00;;
6463;SDS011;3265;42.694;23.282;2023-02-26T17:50:50;39.43;;;12.17;;
6463;SDS011;3265;42.694;23.282;2023-02-26T17:53:30;48.70;;;12.53;;
6463;SDS011;3265;42.694;23.282;2023-02-26T17:56:21;47.00;;;11.17;;
6463;SDS011;3265;42.694;23.282;2023-02-26T17:59:31;47.07;;;11.30;;
6463;SDS011;3265;42.694;23.282;2023-02-26T18:02:04;38.77;;;11.33;;
6463;SDS011;3265;42.694;23.282;2023-02-26T18:04:41;44.17;;;11.40;;
6463;SDS011;3265;42.694;23.282;2023-02-26T18:07:12;42.33;;;15.07;;
6463;SDS011;3265;42.694;23.282;2023-02-26T18:09:47;29.40;;;11.53;;
6463;SDS011;3265;42.694;23.282;2023-02-26T18:12:25;23.63;;;8.20;;
6463;SDS011;3265;42.694;23.282;2023-02-26T18:14:54;30.07;;;7.90;;
6463;SDS011;3265;42.694;23.282;2023-02-26T18:17:22;28.07;;;9.47;;
6463;SDS011;3265;42.694;23.282;2023-02-26T18:20:01;25.60;;;8.33;;
6463;SDS011;3265;42.694;23.282;2023-02-26T18:22:31;28.20;;;9.10;;
6463;SDS011;3265;42.694;23.282;2023-02-26T18:25:03;27.43;;;10.70;;
6463;SDS011;3265;42.694;23.282;2023-02-26T18:27:31;27.93;;;10.03;;
6463;SDS011;3265;42.694;23.282;2023-02-26T18:30:00;36.43;;;10.27;;
6463;SDS011;3265;42.694;23.282;2023-02-26T18:32:29;46.93;;;11.43;;
6463;SDS011;3265;42.694;23.282;2023-02-26T18:34:56;34.37;;;10.10;;
6463;SDS011;3265;42.694;23.282;2023-02-26T18:37:27;37.40;;;10.23;;
6463;SDS011;3265;42.694;23.282;2023-02-26T18:39:54;32.03;;;9.57;;
6463;SDS011;3265;42.694;23.282;2023-02-26T18:42:22;39.80;;;10.10;;
6463;SDS011;3265;42.694;23.282;2023-02-26T18:44:50;28.67;;;10.40;;
6463;SDS011;3265;42.694;23.282;2023-02-26T18:47:19;40.27;;;12.37;;
6463;SDS011;3265;42.694;23.282;2023-02-26T18:49:47;30.20;;;12.80;;
6463;SDS011;3265;42.694;23.282;2023-02-26T18:52:14;47.33;;;15.30;;
6463;SDS011;3265;42.694;23.282;2023-02-26T18:54:41;38.27;;;13.90;;
6463;SDS011;3265;42.694;23.282;2023-02-26T18:57:09;32.67;;;12.33;;
6463;SDS011;3265;42.694;23.282;2023-02-26T18:59:51;33.47;;;12.33;;
6463;SDS011;3265;42.694;23.282;2023-02-26T19:02:52;34.03;;;11.30;;
6463;SDS011;3265;42.694;23.282;2023-02-26T19:05:19;24.13;;;10.67;;
6463;SDS011;3265;42.694;23.282;2023-02-26T19:07:48;30.57;;;11.20;;
6463;SDS011;3265;42.694;23.282;2023-02-26T19:10:15;35.37;;;11.07;;
6463;SDS011;3265;42.694;23.282;2023-02-26T19:12:46;35.30;;;12.63;;
6463;SDS011;3265;42.694;23.282;2023-02-26T19:15:14;47.83;;;12.83;;
6463;SDS011;3265;42.694;23.282;2023-02-26T19:17:42;45.67;;;11.20;;
6463;SDS011;3265;42.694;23.282;2023-02-26T19:20:10;36.20;;;11.67;;
6463;SDS011;3265;42.694;23.282;2023-02-26T19:22:39;33.50;;;11.30;;
6463;SDS011;3265;42.694;23.282;2023-02-26T19:25:06;30.07;;;12.40;;
6463;SDS011;3265;42.694;23.282;2023-02-26T19:27:33;32.10;;;12.33;;
6463;SDS011;3265;42.694;23.282;2023-02-26T19:30:00;33.37;;;12.23;;
6463;SDS011;3265;42.694;23.282;2023-02-26T19:32:28;36.93;;;13.10;;
6463;SDS011;3265;42.694;23.282;2023-02-26T19:34:55;32.30;;;13.20;;
6463;SDS011;3265;42.694;23.282;2023-02-26T19:37:24;47.13;;;15.87;;
6463;SDS011;3265;42.694;23.282;2023-02-26T19:39:51;42.77;;;14.30;;
6463;SDS011;3265;42.694;23.282;2023-02-26T19:42:17;39.60;;;15.53;;
6463;SDS011;3265;42.694;23.282;2023-02-26T19:44:44;49.80;;;15.00;;
6463;SDS011;3265;42.694;23.282;2023-02-26T19:47:11;45.93;;;13.57;;
6463;SDS011;3265;42.694;23.282;2023-02-26T19:49:38;34.47;;;15.60;;
6463;SDS011;3265;42.694;23.282;2023-02-26T19:52:05;40.07;;;13.67;;
6463;SDS011;3265;42.694;23.282;2023-02-26T19:54:34;37.10;;;14.83;;
6463;SDS011;3265;42.694;23.282;2023-02-26T19:57:00;37.87;;;14.73;;
6463;SDS011;3265;42.694;23.282;2023-02-26T19:59:27;46.53;;;15.00;;
6463;SDS011;3265;42.694;23.282;2023-02-26T20:01:54;42.60;;;14.73;;
6463;SDS011;3265;42.694;23.282;2023-02-26T20:04:21;53.83;;;17.87;;
6463;SDS011;3265;42.694;23.282;2023-02-26T20:06:48;47.60;;;17.37;;
6463;SDS011;3265;42.694;23.282;2023-02-26T20:09:15;50.63;;;17.37;;
6463;SDS011;3265;42.694;23.282;2023-02-26T20:11:45;80.70;;;28.03;;
6463;SDS011;3265;42.694;23.282;2023-02-26T20:14:12;74.73;;;28.17;;
6463;SDS011;3265;42.694;23.282;2023-02-26T20:16:41;65.00;;;29.60;;
6463;SDS011;3265;42.694;23.282;2023-02-26T20:19:08;91.77;;;37.60;;
6463;SDS011;3265;42.694;23.282;2023-02-26T20:21:35;104.97;;;50.17;;
6463;SDS011;3265;42.694;23.282;2023-02-26T20:24:08;105.53;;;47.63;;
6463;SDS011;3265;42.694;23.282;2023-02-26T20:26:35;101.27;;;49.33;;